sensor_id;sensor_type;location;lat;lon;timestamp;pressure;altitude;pressure_sealevel;temperature;humidity
57948;BME280;43754;56.992;24.292;2022-10-16T00:02:24;101403.31;;;11.90;100.00
57948;BME280;43754;56.992;24.292;2022-10-16T00:04:56;101392.56;;;11.90;100.00
57948;BME280;43754;56.992;24.292;2022-10-16T00:07:28;101398.97;;;11.89;100.00
57948;BME280;43754;56.992;24.292;2022-10-16T00:10:02;101405.00;;;11.91;100.00
57948;BME280;43754;56.992;24.292;2022-10-16T00:12:34;101405.00;;;11.91;100.00
57948;BME280;43754;56.992;24.292;2022-10-16T00:15:07;101409.72;;;11.89;100.00
57948;BME280;43754;56.992;24.292;2022-10-16T00:17:39;101397.28;;;11.88;100.00
57948;BME280;43754;56.992;24.292;2022-10-16T00:20:11;101399.31;;;11.86;100.00
57948;BME280;43754;56.992;24.292;2022-10-16T00:22:43;101408.03;;;11.88;100.00
57948;BME280;43754;56.992;24.292;2022-10-16T00:25:17;101406.03;;;11.82;100.00
57948;BME280;43754;56.992;24.292;2022-10-16T00:27:49;101404.19;;;11.83;100.00
57948;BME280;43754;56.992;24.292;2022-10-16T00:30:21;101404.66;;;11.86;100.00
57948;BME280;43754;56.992;24.292;2022-10-16T00:32:53;101400.34;;;11.85;100.00
57948;BME280;43754;56.992;24.292;2022-10-16T00:35:25;101405.72;;;11.85;100.00
57948;BME280;43754;56.992;24.292;2022-10-16T00:37:57;101405.72;;;11.85;100.00
57948;BME280;43754;56.992;24.292;2022-10-16T00:40:30;101409.41;;;11.84;100.00
57948;BME280;43754;56.992;24.292;2022-10-16T00:43:07;101405.03;;;11.83;100.00
57948;BME280;43754;56.992;24.292;2022-10-16T00:45:41;101407.88;;;11.82;100.00
57948;BME280;43754;56.992;24.292;2022-10-16T00:48:13;101403.34;;;11.82;100.00
57948;BME280;43754;56.992;24.292;2022-10-16T00:50:46;101397.13;;;11.82;100.00
57948;BME280;43754;56.992;24.292;2022-10-16T00:53:18;101402.50;;;11.82;100.00
57948;BME280;43754;56.992;24.292;2022-10-16T00:55:51;101400.84;;;11.81;100.00
57948;BME280;43754;56.992;24.292;2022-10-16T00:58:24;101399.00;;;11.81;100.00
57948;BME280;43754;56.992;24.292;2022-10-16T01:00:56;101404.38;;;11.81;100.00
57948;BME280;43754;56.992;24.292;2022-10-16T01:03:31;101395.47;;;11.81;100.00
57948;BME280;43754;56.992;24.292;2022-10-16T01:06:21;101406.38;;;11.79;100.00
57948;BME280;43754;56.992;24.292;2022-10-16T01:09:07;101410.41;;;11.83;100.00
57948;BME280;43754;56.992;24.292;2022-10-16T01:11:51;101399.00;;;11.81;100.00
57948;BME280;43754;56.992;24.292;2022-10-16T01:14:33;101405.03;;;11.83;100.00
57948;BME280;43754;56.992;24.292;2022-10-16T01:17:12;101406.50;;;11.86;100.00
57948;BME280;43754;56.992;24.292;2022-10-16T01:19:57;101405.50;;;11.87;100.00
57948;BME280;43754;56.992;24.292;2022-10-16T01:22:38;101403.03;;;11.85;100.00
57948;BME280;43754;56.992;24.292;2022-10-16T01:25:18;101398.66;;;11.84;100.00
57948;BME280;43754;56.992;24.292;2022-10-16T01:27:53;101402.19;;;11.85;100.00
57948;BME280;43754;56.992;24.292;2022-10-16T01:30:28;101391.44;;;11.85;100.00
57948;BME280;43754;56.992;24.292;2022-10-16T01:33:06;101390.59;;;11.84;100.00
57948;BME280;43754;56.992;24.292;2022-10-16T01:35:44;101392.28;;;11.85;100.00
57948;BME280;43754;56.992;24.292;2022-10-16T01:38:21;101390.25;;;11.87;100.00
57948;BME280;43754;56.992;24.292;2022-10-16T01:41:00;101392.75;;;11.89;100.00
57948;BME280;43754;56.992;24.292;2022-10-16T01:43:37;101396.94;;;11.91;100.00
57948;BME280;43754;56.992;24.292;2022-10-16T01:46:10;101389.72;;;11.92;100.00
57948;BME280;43754;56.992;24.292;2022-10-16T01:48:45;101391.56;;;11.91;100.00
57948;BME280;43754;56.992;24.292;2022-10-16T01:51:19;101387.03;;;11.92;100.00
57948;BME280;43754;56.992;24.292;2022-10-16T01:53:53;101386.19;;;11.91;100.00
57948;BME280;43754;56.992;24.292;2022-10-16T01:56:27;101376.81;;;11.87;100.00
57948;BME280;43754;56.992;24.292;2022-10-16T01:59:05;101384.72;;;11.89;100.00
57948;BME280;43754;56.992;24.292;2022-10-16T02:01:40;101381.34;;;11.87;100.00
57948;BME280;43754;56.992;24.292;2022-10-16T02:04:17;101376.97;;;11.86;100.00
57948;BME280;43754;56.992;24.292;2022-10-16T02:06:50;101383.19;;;11.86;100.00
57948;BME280;43754;56.992;24.292;2022-10-16T02:09:23;101384.03;;;11.87;100.00
57948;BME280;43754;56.992;24.292;2022-10-16T02:11:57;101377.81;;;11.86;100.00
57948;BME280;43754;56.992;24.292;2022-10-16T02:14:32;101382.34;;;11.86;100.00
57948;BME280;43754;56.992;24.292;2022-10-16T02:17:11;101381.84;;;11.82;100.00
57948;BME280;43754;56.992;24.292;2022-10-16T02:19:44;101381.38;;;11.79;100.00
57948;BME280;43754;56.992;24.292;2022-10-16T02:22:22;101381.84;;;11.82;100.00
57948;BME280;43754;56.992;24.292;2022-10-16T02:24:59;101370.28;;;11.82;100.00
57948;BME280;43754;56.992;24.292;2022-10-16T02:27:38;101369.78;;;11.78;100.00
57948;BME280;43754;56.992;24.292;2022-10-16T02:30:19;101377.50;;;11.81;100.00
57948;BME280;43754;56.992;24.292;2022-10-16T02:32:53;101373.16;;;11.80;100.00
57948;BME280;43754;56.992;24.292;2022-10-16T02:35:27;101370.63;;;11.79;100.00
57948;BME280;43754;56.992;24.292;2022-10-16T02:37:59;101374.63;;;11.83;100.00
57948;BME280;43754;56.992;24.292;2022-10-16T02:40:33;101374.47;;;11.84;100.00
57948;BME280;43754;56.992;24.292;2022-10-16T02:43:05;101373.28;;;11.87;100.00
57948;BME280;43754;56.992;24.292;2022-10-16T02:45:39;101374.13;;;11.87;100.00
57948;BME280;43754;56.992;24.292;2022-10-16T02:48:11;101378.66;;;11.87;100.00
57948;BME280;43754;56.992;24.292;2022-10-16T02:50:43;101374.81;;;11.89;100.00
57948;BME280;43754;56.992;24.292;2022-10-16T02:53:15;101371.44;;;11.87;100.00
57948;BME280;43754;56.992;24.292;2022-10-16T02:55:47;101377.50;;;11.89;100.00
57948;BME280;43754;56.992;24.292;2022-10-16T02:58:19;101376.66;;;11.89;100.00
57948;BME280;43754;56.992;24.292;2022-10-16T03:00:52;101373.13;;;11.88;100.00
57948;BME280;43754;56.992;24.292;2022-10-16T03:03:24;101381.66;;;11.92;100.00
57948;BME280;43754;56.992;24.292;2022-10-16T03:05:56;101371.75;;;11.92;100.00
57948;BME280;43754;56.992;24.292;2022-10-16T03:08:28;101372.44;;;11.86;100.00
57948;BME280;43754;56.992;24.292;2022-10-16T03:11:01;101366.75;;;11.89;100.00
57948;BME280;43754;56.992;24.292;2022-10-16T03:13:33;101367.22;;;11.93;100.00
57948;BME280;43754;56.992;24.292;2022-10-16T03:16:06;101377.63;;;11.96;100.00
57948;BME280;43754;56.992;24.292;2022-10-16T03:18:38;101375.25;;;12.01;100.00
57948;BME280;43754;56.992;24.292;2022-10-16T03:21:10;101383.31;;;12.01;100.00
57948;BME280;43754;56.992;24.292;2022-10-16T03:23:42;101380.44;;;12.03;100.00
57948;BME280;43754;56.992;24.292;2022-10-16T03:26:14;101390.19;;;12.04;100.00
57948;BME280;43754;56.992;24.292;2022-10-16T03:28:46;101383.66;;;12.06;100.00
57948;BME280;43754;56.992;24.292;2022-10-16T03:31:20;101386.97;;;12.08;100.00
57948;BME280;43754;56.992;24.292;2022-10-16T03:33:52;101391.16;;;12.11;100.00
57948;BME280;43754;56.992;24.292;2022-10-16T03:36:24;101377.56;;;12.12;100.00
57948;BME280;43754;56.992;24.292;2022-10-16T03:38:56;101390.00;;;12.13;100.00
57948;BME280;43754;56.992;24.292;2022-10-16T03:41:28;101393.69;;;12.12;100.00
57948;BME280;43754;56.992;24.292;2022-10-16T03:44:00;101389.16;;;12.13;100.00
57948;BME280;43754;56.992;24.292;2022-10-16T03:46:33;101388.66;;;12.09;100.00
57948;BME280;43754;56.992;24.292;2022-10-16T03:49:05;101395.53;;;12.12;100.00
57948;BME280;43754;56.992;24.292;2022-10-16T03:51:40;101390.81;;;12.14;100.00
57948;BME280;43754;56.992;24.292;2022-10-16T03:54:12;101402.22;;;12.16;100.00
57948;BME280;43754;56.992;24.292;2022-10-16T03:56:44;101390.47;;;12.17;100.00
57948;BME280;43754;56.992;24.292;2022-10-16T03:59:16;101395.69;;;12.18;100.00
57948;BME280;43754;56.992;24.292;2022-10-16T04:01:50;101397.34;;;12.19;100.00
57948;BME280;43754;56.992;24.292;2022-10-16T04:04:22;101401.53;;;12.22;100.00
57948;BME280;43754;56.992;24.292;2022-10-16T04:06:54;101402.91;;;12.18;100.00
57948;BME280;43754;56.992;24.292;2022-10-16T04:09:26;101404.41;;;12.20;100.00
57948;BME280;43754;56.992;24.292;2022-10-16T04:11:57;101406.06;;;12.21;100.00
57948;BME280;43754;56.992;24.292;2022-10-16T04:14:29;101398.84;;;12.22;100.00
57948;BME280;43754;56.992;24.292;2022-10-16T04:17:03;101402.19;;;12.24;100.00
57948;BME280;43754;56.992;24.292;2022-10-16T04:19:35;101403.88;;;12.25;100.00
57948;BME280;43754;56.992;24.292;2022-10-16T04:22:07;101403.88;;;12.25;100.00
57948;BME280;43754;56.992;24.292;2022-10-16T04:24:39;101403.88;;;12.25;100.00
57948;BME280;43754;56.992;24.292;2022-10-16T04:27:11;101406.41;;;12.26;100.00
57948;BME280;43754;56.992;24.292;2022-10-16T04:29:43;101398.34;;;12.26;100.00
57948;BME280;43754;56.992;24.292;2022-10-16T04:32:16;101395.44;;;12.28;100.00
57948;BME280;43754;56.992;24.292;2022-10-16T04:34:48;101395.44;;;12.28;100.00
57948;BME280;43754;56.992;24.292;2022-10-16T04:37:23;101395.44;;;12.28;100.00
57948;BME280;43754;56.992;24.292;2022-10-16T04:39:55;101382.84;;;12.28;100.00
57948;BME280;43754;56.992;24.292;2022-10-16T04:42:27;101380.00;;;12.30;100.00
57948;BME280;43754;56.992;24.292;2022-10-16T04:44:59;101384.00;;;12.34;100.00
57948;BME280;43754;56.992;24.292;2022-10-16T04:47:33;101381.31;;;12.34;100.00
57948;BME280;43754;56.992;24.292;2022-10-16T04:50:06;101382.16;;;12.34;100.00
57948;BME280;43754;56.992;24.292;2022-10-16T04:52:38;101391.91;;;12.35;100.00
57948;BME280;43754;56.992;24.292;2022-10-16T04:55:10;101390.59;;;12.31;100.00
57948;BME280;43754;56.992;24.292;2022-10-16T04:57:42;101396.25;;;12.36;100.00
57948;BME280;43754;56.992;24.292;2022-10-16T05:00:14;101390.88;;;12.36;100.00
57948;BME280;43754;56.992;24.292;2022-10-16T05:02:49;101387.53;;;12.34;100.00
57948;BME280;43754;56.992;24.292;2022-10-16T05:05:21;101377.78;;;12.33;100.00
57948;BME280;43754;56.992;24.292;2022-10-16T05:07:54;101385.50;;;12.36;100.00
57948;BME280;43754;56.992;24.292;2022-10-16T05:10:26;101389.22;;;12.35;100.00
57948;BME280;43754;56.992;24.292;2022-10-16T05:12:58;101392.19;;;12.40;100.00
57948;BME280;43754;56.992;24.292;2022-10-16T05:15:30;101393.88;;;12.41;100.00
57948;BME280;43754;56.992;24.292;2022-10-16T05:18:04;101404.63;;;12.41;100.00
57948;BME280;43754;56.992;24.292;2022-10-16T05:20:36;101397.41;;;12.42;100.00
57948;BME280;43754;56.992;24.292;2022-10-16T05:23:08;101404.63;;;12.41;100.00
57948;BME280;43754;56.992;24.292;2022-10-16T05:25:41;101412.53;;;12.43;100.00
57948;BME280;43754;56.992;24.292;2022-10-16T05:28:14;101409.84;;;12.43;100.00
57948;BME280;43754;56.992;24.292;2022-10-16T05:30:46;101411.50;;;12.44;100.00
57948;BME280;43754;56.992;24.292;2022-10-16T05:33:21;101421.72;;;12.49;100.00
57948;BME280;43754;56.992;24.292;2022-10-16T05:35:53;101423.25;;;12.51;100.00
57948;BME280;43754;56.992;24.292;2022-10-16T05:38:25;101419.34;;;12.54;100.00
57948;BME280;43754;56.992;24.292;2022-10-16T05:40:57;101424.22;;;12.58;100.00
57948;BME280;43754;56.992;24.292;2022-10-16T05:43:30;101424.88;;;12.60;100.00
57948;BME280;43754;56.992;24.292;2022-10-16T05:46:03;101429.91;;;12.63;100.00
57948;BME280;43754;56.992;24.292;2022-10-16T05:48:37;101432.59;;;12.63;100.00
57948;BME280;43754;56.992;24.292;2022-10-16T05:51:11;101427.75;;;12.59;100.00
57948;BME280;43754;56.992;24.292;2022-10-16T05:53:43;101432.75;;;12.62;100.00
57948;BME280;43754;56.992;24.292;2022-10-16T05:56:20;101428.06;;;12.64;100.00
57948;BME280;43754;56.992;24.292;2022-10-16T05:58:52;101423.31;;;12.66;100.00
57948;BME280;43754;56.992;24.292;2022-10-16T06:01:24;101439.47;;;12.66;100.00
57948;BME280;43754;56.992;24.292;2022-10-16T06:03:58;101438.47;;;12.67;100.00
57948;BME280;43754;56.992;24.292;2022-10-16T06:06:30;101442.84;;;12.68;100.00
57948;BME280;43754;56.992;24.292;2022-10-16T06:09:03;101448.69;;;12.71;100.00
57948;BME280;43754;56.992;24.292;2022-10-16T06:11:36;101450.38;;;12.72;100.00
57948;BME280;43754;56.992;24.292;2022-10-16T06:14:08;101459.56;;;12.78;100.00
57948;BME280;43754;56.992;24.292;2022-10-16T06:16:40;101465.63;;;12.80;100.00
57948;BME280;43754;56.992;24.292;2022-10-16T06:19:14;101465.47;;;12.81;100.00
57948;BME280;43754;56.992;24.292;2022-10-16T06:21:47;101461.72;;;12.82;100.00
57948;BME280;43754;56.992;24.292;2022-10-16T06:24:20;101467.78;;;12.84;100.00
57948;BME280;43754;56.992;24.292;2022-10-16T06:26:52;101461.56;;;12.84;100.00
57948;BME280;43754;56.992;24.292;2022-10-16T06:29:24;101459.34;;;12.87;100.00
57948;BME280;43754;56.992;24.292;2022-10-16T06:31:55;101453.97;;;12.87;100.00
57948;BME280;43754;56.992;24.292;2022-10-16T06:34:29;101451.13;;;12.89;100.00
57948;BME280;43754;56.992;24.292;2022-10-16T06:37:01;101459.50;;;12.94;100.00
57948;BME280;43754;56.992;24.292;2022-10-16T06:39:33;101466.19;;;12.98;100.00
57948;BME280;43754;56.992;24.292;2022-10-16T06:42:05;101472.91;;;13.02;100.00
57948;BME280;43754;56.992;24.292;2022-10-16T06:44:40;101477.78;;;12.99;100.00
57948;BME280;43754;56.992;24.292;2022-10-16T06:47:12;101484.19;;;12.98;100.00
57948;BME280;43754;56.992;24.292;2022-10-16T06:49:46;101492.06;;;12.99;100.00
57948;BME280;43754;56.992;24.292;2022-10-16T06:52:27;101485.69;;;13.00;100.00
57948;BME280;43754;56.992;24.292;2022-10-16T06:55:00;101488.00;;;13.03;100.00
57948;BME280;43754;56.992;24.292;2022-10-16T06:57:32;101483.09;;;13.07;100.00
57948;BME280;43754;56.992;24.292;2022-10-16T07:00:05;101482.28;;;13.06;100.00
57948;BME280;43754;56.992;24.292;2022-10-16T07:02:37;101480.59;;;13.05;100.00
57948;BME280;43754;56.992;24.292;2022-10-16T07:05:11;101479.09;;;13.11;100.00
57948;BME280;43754;56.992;24.292;2022-10-16T07:07:42;101482.59;;;13.11;100.00
57948;BME280;43754;56.992;24.292;2022-10-16T07:10:14;101485.13;;;13.13;100.00
57948;BME280;43754;56.992;24.292;2022-10-16T07:12:46;101488.66;;;13.13;100.00
57948;BME280;43754;56.992;24.292;2022-10-16T07:15:18;101491.00;;;13.16;100.00
57948;BME280;43754;56.992;24.292;2022-10-16T07:17:51;101489.97;;;13.17;100.00
57948;BME280;43754;56.992;24.292;2022-10-16T07:20:24;101487.94;;;13.19;100.00
57948;BME280;43754;56.992;24.292;2022-10-16T07:22:56;101486.28;;;13.18;100.00
57948;BME280;43754;56.992;24.292;2022-10-16T07:25:28;101488.13;;;13.18;100.00
57948;BME280;43754;56.992;24.292;2022-10-16T07:28:00;101486.28;;;13.18;100.00
57948;BME280;43754;56.992;24.292;2022-10-16T07:30:35;101488.13;;;13.18;100.00
57948;BME280;43754;56.992;24.292;2022-10-16T07:33:08;101497.88;;;13.19;100.00
57948;BME280;43754;56.992;24.292;2022-10-16T07:35:49;101495.53;;;13.16;100.00
57948;BME280;43754;56.992;24.292;2022-10-16T07:38:21;101500.06;;;13.15;100.00
57948;BME280;43754;56.992;24.292;2022-10-16T07:40:57;101498.59;;;13.13;100.00
57948;BME280;43754;56.992;24.292;2022-10-16T07:43:29;101493.88;;;13.15;100.00
57948;BME280;43754;56.992;24.292;2022-10-16T07:46:02;101502.97;;;13.14;100.00
57948;BME280;43754;56.992;24.292;2022-10-16T07:48:37;101499.91;;;13.17;100.00
57948;BME280;43754;56.992;24.292;2022-10-16T07:51:10;101489.81;;;13.19;100.00
57948;BME280;43754;56.992;24.292;2022-10-16T07:53:43;101496.16;;;13.26;100.00
57948;BME280;43754;56.992;24.292;2022-10-16T07:56:16;101491.91;;;13.31;100.00
57948;BME280;43754;56.992;24.292;2022-10-16T07:58:48;101489.31;;;13.38;100.00
57948;BME280;43754;56.992;24.292;2022-10-16T08:01:21;101486.09;;;13.43;100.00
57948;BME280;43754;56.992;24.292;2022-10-16T08:03:54;101480.53;;;13.44;100.00
57948;BME280;43754;56.992;24.292;2022-10-16T08:06:27;101488.81;;;13.57;100.00
57948;BME280;43754;56.992;24.292;2022-10-16T08:08:59;101490.44;;;13.66;100.00
57948;BME280;43754;56.992;24.292;2022-10-16T08:11:32;101490.72;;;13.71;100.00
57948;BME280;43754;56.992;24.292;2022-10-16T08:14:04;101490.19;;;13.76;100.00
57948;BME280;43754;56.992;24.292;2022-10-16T08:16:36;101495.03;;;13.80;100.00
57948;BME280;43754;56.992;24.292;2022-10-16T08:19:08;101495.22;;;13.79;100.00
57948;BME280;43754;56.992;24.292;2022-10-16T08:21:42;101482.03;;;13.84;100.00
57948;BME280;43754;56.992;24.292;2022-10-16T08:24:14;101477.94;;;13.88;100.00
57948;BME280;43754;56.992;24.292;2022-10-16T08:26:46;101488.19;;;13.93;100.00
57948;BME280;43754;56.992;24.292;2022-10-16T08:29:18;101484.47;;;14.08;100.00
57948;BME280;43754;56.992;24.292;2022-10-16T08:31:50;101471.28;;;14.28;100.00
57948;BME280;43754;56.992;24.292;2022-10-16T08:34:22;101466.16;;;14.33;100.00
57948;BME280;43754;56.992;24.292;2022-10-16T08:36:56;101461.25;;;14.37;100.00
57948;BME280;43754;56.992;24.292;2022-10-16T08:39:28;101468.22;;;14.31;100.00
57948;BME280;43754;56.992;24.292;2022-10-16T08:42:11;101458.00;;;14.26;100.00
57948;BME280;43754;56.992;24.292;2022-10-16T08:48:18;101445.53;;;14.25;100.00
57948;BME280;43754;56.992;24.292;2022-10-16T08:50:53;101453.06;;;14.30;100.00
57948;BME280;43754;56.992;24.292;2022-10-16T08:53:29;101448.97;;;14.34;100.00
57948;BME280;43754;56.992;24.292;2022-10-16T08:56:03;101460.13;;;14.31;100.00
57948;BME280;43754;56.992;24.292;2022-10-16T08:58:35;101464.03;;;14.28;100.00
57948;BME280;43754;56.992;24.292;2022-10-16T09:01:13;101465.06;;;14.27;100.00
57948;BME280;43754;56.992;24.292;2022-10-16T09:03:58;101466.94;;;14.27;100.00
57948;BME280;43754;56.992;24.292;2022-10-16T09:06:43;101465.88;;;14.28;100.00
57948;BME280;43754;56.992;24.292;2022-10-16T09:09:44;101471.19;;;14.21;100.00
57948;BME280;43754;56.992;24.292;2022-10-16T09:12:24;101473.59;;;14.16;100.00
57948;BME280;43754;56.992;24.292;2022-10-16T09:15:05;101477.44;;;14.22;100.00
57948;BME280;43754;56.992;24.292;2022-10-16T09:17:45;101485.50;;;14.22;100.00
57948;BME280;43754;56.992;24.292;2022-10-16T09:20:33;101482.66;;;14.23;100.00
57948;BME280;43754;56.992;24.292;2022-10-16T09:23:13;101493.97;;;14.19;100.00
57948;BME280;43754;56.992;24.292;2022-10-16T09:25:49;101481.78;;;14.08;100.00
57948;BME280;43754;56.992;24.292;2022-10-16T09:28:22;101484.31;;;14.10;100.00
57948;BME280;43754;56.992;24.292;2022-10-16T09:30:54;101485.59;;;14.14;100.00
57948;BME280;43754;56.992;24.292;2022-10-16T09:33:29;101484.75;;;14.13;100.00
57948;BME280;43754;56.992;24.292;2022-10-16T09:36:05;101481.91;;;14.15;100.00
57948;BME280;43754;56.992;24.292;2022-10-16T09:38:38;101484.59;;;14.15;100.00
57948;BME280;43754;56.992;24.292;2022-10-16T09:41:17;101486.25;;;14.16;100.00
57948;BME280;43754;56.992;24.292;2022-10-16T09:43:53;101476.19;;;14.24;100.00
57948;BME280;43754;56.992;24.292;2022-10-16T09:46:28;101477.44;;;14.22;100.00
57948;BME280;43754;56.992;24.292;2022-10-16T09:49:02;101472.59;;;14.17;100.00
57948;BME280;43754;56.992;24.292;2022-10-16T09:51:36;101470.72;;;14.18;100.00
57948;BME280;43754;56.992;24.292;2022-10-16T09:54:14;101462.19;;;14.14;100.00
57948;BME280;43754;56.992;24.292;2022-10-16T09:56:48;101461.97;;;14.16;100.00
57948;BME280;43754;56.992;24.292;2022-10-16T09:59:23;101470.72;;;14.18;100.00
57948;BME280;43754;56.992;24.292;2022-10-16T10:02:02;101479.94;;;14.23;100.00
57948;BME280;43754;56.992;24.292;2022-10-16T10:04:40;101462.94;;;14.23;100.00
57948;BME280;43754;56.992;24.292;2022-10-16T10:07:18;101470.81;;;14.24;100.00
57948;BME280;43754;56.992;24.292;2022-10-16T10:09:53;101464.03;;;14.28;100.00
57948;BME280;43754;56.992;24.292;2022-10-16T10:12:28;101459.19;;;14.24;100.00
57948;BME280;43754;56.992;24.292;2022-10-16T10:15:06;101465.69;;;14.29;100.00
57948;BME280;43754;56.992;24.292;2022-10-16T10:17:45;101459.69;;;14.27;100.00
57948;BME280;43754;56.992;24.292;2022-10-16T10:20:23;101461.53;;;14.27;100.00
57948;BME280;43754;56.992;24.292;2022-10-16T10:22:56;101464.69;;;14.31;100.00
57948;BME280;43754;56.992;24.292;2022-10-16T10:25:45;101467.84;;;14.34;100.00
57948;BME280;43754;56.992;24.292;2022-10-16T10:28:42;101462.09;;;14.37;100.00
57948;BME280;43754;56.992;24.292;2022-10-16T10:31:21;101470.66;;;14.41;100.00
57948;BME280;43754;56.992;24.292;2022-10-16T10:34:00;101471.69;;;14.40;100.00
57948;BME280;43754;56.992;24.292;2022-10-16T10:36:36;101469.47;;;14.43;100.00
57948;BME280;43754;56.992;24.292;2022-10-16T10:39:15;101479.41;;;14.43;100.00
57948;BME280;43754;56.992;24.292;2022-10-16T10:42:04;101475.03;;;14.42;100.00
57948;BME280;43754;56.992;24.292;2022-10-16T10:44:52;101469.84;;;14.40;100.00
57948;BME280;43754;56.992;24.292;2022-10-16T10:47:35;101476.53;;;14.44;100.00
57948;BME280;43754;56.992;24.292;2022-10-16T10:50:14;101475.13;;;14.48;100.00
57948;BME280;43754;56.992;24.292;2022-10-16T10:52:57;101460.81;;;14.48;100.00
57948;BME280;43754;56.992;24.292;2022-10-16T10:55:37;101454.47;;;14.55;100.00
57948;BME280;43754;56.992;24.292;2022-10-16T10:58:24;101460.50;;;14.57;100.00
57948;BME280;43754;56.992;24.292;2022-10-16T11:01:08;101449.53;;;14.59;100.00
57948;BME280;43754;56.992;24.292;2022-10-16T11:03:56;101444.59;;;14.62;100.00
57948;BME280;43754;56.992;24.292;2022-10-16T11:06:33;101446.53;;;14.68;100.00
57948;BME280;43754;56.992;24.292;2022-10-16T11:09:11;101451.16;;;14.74;100.00
57948;BME280;43754;56.992;24.292;2022-10-16T11:11:48;101462.72;;;14.68;100.00
57948;BME280;43754;56.992;24.292;2022-10-16T11:14:25;101464.75;;;14.66;100.00
57948;BME280;43754;56.992;24.292;2022-10-16T11:17:04;101466.84;;;14.64;100.00
57948;BME280;43754;56.992;24.292;2022-10-16T11:19:44;101454.53;;;14.62;100.00
57948;BME280;43754;56.992;24.292;2022-10-16T11:22:23;101450.25;;;14.67;100.00
57948;BME280;43754;56.992;24.292;2022-10-16T11:25:02;101447.72;;;14.66;100.00
57948;BME280;43754;56.992;24.292;2022-10-16T11:27:40;101448.13;;;14.63;100.00
57948;BME280;43754;56.992;24.292;2022-10-16T11:30:16;101463.84;;;14.59;100.00
57948;BME280;43754;56.992;24.292;2022-10-16T11:33:08;101458.19;;;14.54;100.00
57948;BME280;43754;56.992;24.292;2022-10-16T11:35:49;101446.53;;;14.54;100.00
57948;BME280;43754;56.992;24.292;2022-10-16T11:38:28;101451.75;;;14.55;100.00
57948;BME280;43754;56.992;24.292;2022-10-16T11:41:04;101446.19;;;14.57;100.00
57948;BME280;43754;56.992;24.292;2022-10-16T11:43:48;101450.75;;;14.56;100.00
57948;BME280;43754;56.992;24.292;2022-10-16T11:46:24;101445.63;;;14.47;100.00
57948;BME280;43754;56.992;24.292;2022-10-16T11:49:04;101452.88;;;14.46;100.00
57948;BME280;43754;56.992;24.292;2022-10-16T11:51:42;101451.41;;;14.44;100.00
57948;BME280;43754;56.992;24.292;2022-10-16T11:54:20;101452.44;;;14.43;100.00
57948;BME280;43754;56.992;24.292;2022-10-16T11:57:00;101447.88;;;14.43;100.00
57948;BME280;43754;56.992;24.292;2022-10-16T11:59:38;101458.84;;;14.42;100.00
57948;BME280;43754;56.992;24.292;2022-10-16T12:02:31;101462.09;;;14.37;100.00
57948;BME280;43754;56.992;24.292;2022-10-16T12:05:17;101455.38;;;14.33;100.00
57948;BME280;43754;56.992;24.292;2022-10-16T12:07:56;101461.59;;;14.34;100.00
57948;BME280;43754;56.992;24.292;2022-10-16T12:10:31;101454.75;;;14.31;100.00
57948;BME280;43754;56.992;24.292;2022-10-16T12:13:28;101454.34;;;14.34;100.00
57948;BME280;43754;56.992;24.292;2022-10-16T12:16:07;101454.84;;;14.38;100.00
57948;BME280;43754;56.992;24.292;2022-10-16T12:19:09;101446.59;;;14.39;100.00
57948;BME280;43754;56.992;24.292;2022-10-16T12:21:44;101437.28;;;14.42;100.00
57948;BME280;43754;56.992;24.292;2022-10-16T12:24:33;101441.81;;;14.41;100.00
57948;BME280;43754;56.992;24.292;2022-10-16T12:27:20;101446.88;;;14.44;100.00
57948;BME280;43754;56.992;24.292;2022-10-16T12:29:56;101438.78;;;14.44;100.00
57948;BME280;43754;56.992;24.292;2022-10-16T12:32:31;101434.28;;;14.51;100.00
57948;BME280;43754;56.992;24.292;2022-10-16T12:35:21;101439.84;;;14.50;100.00
57948;BME280;43754;56.992;24.292;2022-10-16T12:38:05;101437.44;;;14.55;100.00
57948;BME280;43754;56.992;24.292;2022-10-16T12:40:38;101434.34;;;14.58;100.00
57948;BME280;43754;56.992;24.292;2022-10-16T12:43:13;101445.16;;;14.58;100.00
57948;BME280;43754;56.992;24.292;2022-10-16T12:46:03;101441.44;;;14.59;100.00
57948;BME280;43754;56.992;24.292;2022-10-16T12:48:36;101445.34;;;14.56;100.00
57948;BME280;43754;56.992;24.292;2022-10-16T12:51:34;101442.16;;;14.53;100.00
57948;BME280;43754;56.992;24.292;2022-10-16T12:54:14;101439.03;;;14.49;100.00
57948;BME280;43754;56.992;24.292;2022-10-16T12:56:55;101432.78;;;14.49;100.00
57948;BME280;43754;56.992;24.292;2022-10-16T12:59:36;101424.63;;;14.42;100.00
57948;BME280;43754;56.992;24.292;2022-10-16T13:05:38;101421.66;;;14.37;100.00
57948;BME280;43754;56.992;24.292;2022-10-16T13:08:29;101419.78;;;14.38;100.00
57948;BME280;43754;56.992;24.292;2022-10-16T13:11:14;101427.88;;;14.38;100.00
57948;BME280;43754;56.992;24.292;2022-10-16T13:14:20;101425.19;;;14.38;100.00
57948;BME280;43754;56.992;24.292;2022-10-16T13:17:01;101430.41;;;14.39;100.00
57948;BME280;43754;56.992;24.292;2022-10-16T13:19:38;101439.13;;;14.41;100.00
57948;BME280;43754;56.992;24.292;2022-10-16T13:22:20;101443.88;;;14.39;100.00